Time;durP1;ratioP1;P1;durP2;ratioP2;P2;SDS_P1;SDS_P2;PMS_P1;PMS_P2;Temp;Humidity;BMP_temperature;BMP_pressure;BME280_temperature;BME280_humidity;BME280_pressure;Samples;Min_cycle;Max_cycle;Signal;HPM_P1;HPM_P2
2021/05/19 00:02:14;;;;;;;19.30;11.75;;;7.00;99.90;;;;;;4175243;28;20147;-75
2021/05/19 00:06:53;;;;;;;18.63;12.63;;;7.20;99.90;;;;;;4178681;28;20055;-75
2021/05/19 00:08:54;;;;;;;21.98;13.40;;;7.20;99.90;;;;;;4160725;28;20030;-75
2021/05/19 00:11:14;;;;;;;15.88;11.90;;;7.20;99.90;;;;;;4160440;28;20460;-75
2021/05/19 00:15:35;;;;;;;19.42;13.20;;;7.30;99.90;;;;;;4178541;28;20155;-75
2021/05/19 00:17:46;;;;;;;18.73;12.02;;;7.30;99.90;;;;;;4161231;28;20025;-76
2021/05/19 00:19:47;;;;;;;20.48;13.98;;;7.30;99.90;;;;;;4160840;28;20037;-76
2021/05/19 00:21:47;;;;;;;24.73;15.95;;;7.30;99.90;;;;;;4177821;28;20085;-76
2021/05/19 00:26:07;;;;;;;22.85;13.18;;;7.30;99.90;;;;;;4178416;28;20561;-76
2021/05/19 00:31:06;;;;;;;17.58;13.82;;;7.20;99.90;;;;;;4176265;28;20469;-76
2021/05/19 00:33:25;;;;;;;23.85;16.33;;;7.00;99.90;;;;;;4178538;28;20035;-76
2021/05/19 00:38:04;;;;;;;23.15;14.73;;;7.00;99.90;;;;;;4167368;28;20080;-75
2021/05/19 00:40:24;;;;;;;25.38;16.58;;;7.00;99.90;;;;;;4156465;28;20504;-75
2021/05/19 00:42:24;;;;;;;18.23;13.32;;;6.90;99.90;;;;;;4178356;28;20479;-75
2021/05/19 00:44:25;;;;;;;29.58;16.92;;;6.80;99.90;;;;;;4180375;28;20044;-74
2021/05/19 00:46:45;;;;;;;26.90;16.25;;;6.80;99.90;;;;;;4181812;28;20480;-75
2021/05/19 00:48:46;;;;;;;26.30;15.30;;;6.70;99.90;;;;;;4181314;28;20503;-76
2021/05/19 00:51:05;;;;;;;33.67;17.80;;;6.60;99.90;;;;;;4181378;28;20037;-75
2021/05/19 00:53:06;;;;;;;28.23;17.38;;;6.60;99.90;;;;;;4163533;28;20037;-75
2021/05/19 00:55:08;;;;;;;23.48;15.35;;;6.50;99.90;;;;;;4178598;28;20420;-75
2021/05/19 01:00:06;;;;;;;28.40;16.58;;;6.40;99.90;;;;;;4179561;28;20040;-75
2021/05/19 01:02:25;;;;;;;27.25;16.48;;;6.50;99.90;;;;;;4159232;28;20044;-76
2021/05/19 01:04:44;;;;;;;37.40;19.55;;;6.40;99.90;;;;;;4163623;28;20089;-76
2021/05/19 01:06:57;;;;;;;32.10;20.75;;;6.40;99.90;;;;;;4173570;28;20032;-75
2021/05/19 01:11:17;;;;;;;36.22;22.67;;;6.50;99.90;;;;;;4173890;28;20124;-76
2021/05/19 01:13:19;;;;;;;35.80;23.33;;;6.60;99.90;;;;;;4180589;28;20025;-76
2021/05/19 01:15:39;;;;;;;38.95;23.65;;;6.60;99.90;;;;;;4179641;28;20730;-75
2021/05/19 01:19:59;;;;;;;33.75;21.10;;;6.60;99.90;;;;;;4175445;28;20503;-75
2021/05/19 01:24:33;;;;;;;32.15;21.35;;;6.60;99.90;;;;;;4172787;28;20607;-76
2021/05/19 01:26:34;;;;;;;38.40;23.10;;;6.60;99.90;;;;;;4162125;28;20041;-75
2021/05/19 01:28:35;;;;;;;32.95;22.35;;;6.70;99.90;;;;;;4173433;28;20029;-75
2021/05/19 01:30:36;;;;;;;35.80;23.35;;;6.70;99.90;;;;;;4177288;28;20108;-75
2021/05/19 01:32:36;;;;;;;30.65;21.42;;;6.80;99.90;;;;;;4180869;28;20029;-76
2021/05/19 01:34:56;;;;;;;36.13;22.75;;;6.90;99.90;;;;;;4180841;28;20445;-76
2021/05/19 01:39:16;;;;;;;33.28;22.77;;;6.90;99.90;;;;;;4177012;28;20376;-75
2021/05/19 01:41:17;;;;;;;33.08;23.58;;;6.80;99.90;;;;;;4180657;28;20021;-75
2021/05/19 01:43:36;;;;;;;35.55;23.40;;;6.80;99.90;;;;;;4162999;28;20040;-75
2021/05/19 01:45:55;;;;;;;34.28;24.70;;;6.80;99.90;;;;;;4178742;28;20033;-75
2021/05/19 01:47:57;;;;;;;38.15;23.20;;;6.80;99.90;;;;;;4173346;28;20112;-75
2021/05/19 01:49:58;;;;;;;39.58;23.58;;;6.80;99.90;;;;;;4159997;28;20038;-75
2021/05/19 01:52:00;;;;;;;41.55;24.45;;;6.80;99.90;;;;;;4161072;28;20027;-76
2021/05/19 01:54:20;;;;;;;39.05;23.63;;;6.80;99.90;;;;;;4163060;28;20090;-75
2021/05/19 01:56:21;;;;;;;33.05;23.10;;;6.80;99.90;;;;;;4152327;28;22897;-75
2021/05/19 02:05:57;;;;;;;40.72;27.02;;;6.80;99.90;;;;;;4152407;28;20163;-75
2021/05/19 02:07:59;;;;;;;38.65;28.65;;;6.80;99.90;;;;;;4164327;28;20488;-75
2021/05/19 02:10:00;;;;;;;44.47;30.07;;;6.80;99.90;;;;;;4163851;28;20045;-75
2021/05/19 02:12:20;;;;;;;40.65;28.33;;;6.90;99.90;;;;;;4163646;28;20029;-75
2021/05/19 02:14:21;;;;;;;42.92;27.38;;;6.90;99.90;;;;;;4162126;28;20029;-75
2021/05/19 02:17:00;;;;;;;43.00;28.63;;;6.80;99.90;;;;;;4162809;28;20041;-75
2021/05/19 02:21:21;;;;;;;45.05;27.27;;;6.70;99.90;;;;;;4153715;28;20427;-75
2021/05/19 02:28:00;;;;;;;53.55;33.33;;;6.80;99.90;;;;;;4162873;28;20060;-76
2021/05/19 02:30:03;;;;;;;64.25;36.38;;;6.90;99.90;;;;;;4164080;28;20017;-75
2021/05/19 02:36:44;;;;;;;64.63;36.05;;;7.30;99.90;;;;;;4160628;28;20420;-75
2021/05/19 02:41:24;;;;;;;63.67;38.47;;;7.50;99.90;;;;;;4161038;28;20544;-77
2021/05/19 02:43:25;;;;;;;72.85;39.13;;;7.60;99.90;;;;;;4163272;28;20029;-76
2021/05/19 02:45:44;;;;;;;64.47;38.85;;;7.60;99.90;;;;;;4163501;28;21061;-76
2021/05/19 02:50:23;;;;;;;68.60;39.13;;;7.60;99.90;;;;;;4163204;28;20502;-75
2021/05/19 02:52:23;;;;;;;73.53;37.90;;;7.70;99.90;;;;;;4163092;28;20115;-75
2021/05/19 02:54:24;;;;;;;67.95;39.63;;;7.70;99.90;;;;;;4162114;28;20025;-75
2021/05/19 02:56:25;;;;;;;69.18;39.95;;;7.70;99.90;;;;;;4163881;28;21041;-75
2021/05/19 02:58:26;;;;;;;68.30;38.80;;;7.80;99.90;;;;;;4163309;28;20030;-76
2021/05/19 03:00:46;;;;;;;68.43;38.88;;;7.80;99.90;;;;;;4163140;28;20065;-75
2021/05/19 03:03:06;;;;;;;63.97;39.80;;;7.80;99.90;;;;;;4163445;28;20048;-75
2021/05/19 03:05:08;;;;;;;69.68;38.65;;;7.80;99.90;;;;;;4163145;28;20485;-76
2021/05/19 03:07:09;;;;;;;59.50;35.10;;;7.80;99.90;;;;;;4162256;28;20172;-75
2021/05/19 03:11:48;;;;;;;58.53;37.45;;;8.00;99.90;;;;;;4150514;28;20045;-76
2021/05/19 03:14:26;;;;;;;54.05;35.50;;;8.00;99.90;;;;;;4161964;28;20029;-76
2021/05/19 03:16:46;;;;;;;49.78;34.35;;;8.00;99.90;;;;;;4162833;28;20041;-75
2021/05/19 03:18:47;;;;;;;51.50;33.50;;;8.10;99.90;;;;;;4159932;28;20507;-75
2021/05/19 03:20:48;;;;;;;50.75;35.25;;;8.20;99.90;;;;;;4162522;28;20038;-75
2021/05/19 03:25:27;;;;;;;51.08;32.42;;;8.20;99.90;;;;;;4160506;28;20080;-74
2021/05/19 03:27:47;;;;;;;45.35;31.52;;;8.30;99.90;;;;;;4162859;28;20026;-74
2021/05/19 03:30:06;;;;;;;46.30;31.50;;;8.50;99.90;;;;;;4156870;28;20108;-76
2021/05/19 03:32:07;;;;;;;45.67;31.83;;;8.50;99.90;;;;;;4156586;28;20369;-76
2021/05/19 03:34:08;;;;;;;48.70;32.33;;;8.40;99.90;;;;;;4162752;28;20036;-74
2021/05/19 03:36:27;;;;;;;46.72;31.35;;;8.50;99.90;;;;;;4161141;28;20446;-75
2021/05/19 03:38:28;;;;;;;44.10;30.48;;;8.40;99.90;;;;;;4162520;28;20034;-75
2021/05/19 03:40:29;;;;;;;43.63;31.90;;;8.50;99.90;;;;;;4162456;28;20032;-75
2021/05/19 03:43:07;;;;;;;44.17;30.02;;;8.50;99.90;;;;;;4162851;28;20035;-75
2021/05/19 03:50:29;;;;;;;43.30;31.55;;;8.40;99.90;;;;;;4175409;28;20061;-75
2021/05/19 03:52:31;;;;;;;37.30;27.65;;;8.50;99.90;;;;;;4161002;28;20065;-75
2021/05/19 03:54:34;;;;;;;42.40;30.77;;;8.50;99.90;;;;;;4160841;28;20068;-76
2021/05/19 03:56:53;;;;;;;47.33;30.47;;;8.50;99.90;;;;;;4178456;28;20033;-75
2021/05/19 03:59:12;;;;;;;38.28;27.60;;;8.50;99.90;;;;;;4169452;28;20460;-75
2021/05/19 04:01:13;;;;;;;40.60;29.67;;;8.60;99.90;;;;;;4178414;28;20182;-75
2021/05/19 04:03:14;;;;;;;42.55;30.52;;;8.70;99.90;;;;;;4160944;28;20057;-75
2021/05/19 04:05:16;;;;;;;42.50;29.98;;;8.70;99.90;;;;;;4160999;28;20039;-75
2021/05/19 04:07:55;;;;;;;37.50;29.40;;;8.70;99.90;;;;;;4158530;28;20508;-75
2021/05/19 04:09:56;;;;;;;42.40;28.02;;;8.80;99.90;;;;;;4172489;28;20033;-74
2021/05/19 04:14:34;;;;;;;35.88;27.95;;;8.90;99.90;;;;;;4171182;28;20028;-75
2021/05/19 04:16:35;;;;;;;35.47;27.63;;;8.80;99.90;;;;;;4178678;28;20045;-75
2021/05/19 04:21:13;;;;;;;36.00;28.83;;;8.90;99.90;;;;;;4182140;28;20067;-74
2021/05/19 04:23:14;;;;;;;34.22;25.27;;;8.90;99.90;;;;;;4181940;28;20108;-75
2021/05/19 04:25:36;;;;;;;36.22;25.13;;;9.00;99.90;;;;;;4164218;28;20500;-75
2021/05/19 04:27:56;;;;;;;35.60;26.08;;;9.10;99.90;;;;;;4182073;28;20029;-74
2021/05/19 04:30:16;;;;;;;32.78;24.95;;;9.20;99.90;;;;;;4176381;28;20440;-74
2021/05/19 04:32:35;;;;;;;32.35;24.83;;;9.20;99.90;;;;;;4163792;28;20104;-75
2021/05/19 04:34:55;;;;;;;34.47;26.30;;;9.20;99.90;;;;;;4156857;28;20197;-75
2021/05/19 04:36:56;;;;;;;34.22;25.25;;;9.20;99.90;;;;;;4163864;28;20025;-75
2021/05/19 04:41:54;;;;;;;32.58;25.23;;;9.20;99.90;;;;;;4173683;28;20549;-75
2021/05/19 04:43:54;;;;;;;32.33;25.30;;;9.30;99.90;;;;;;4166609;28;20091;-75
2021/05/19 04:50:34;;;;;;;29.05;23.20;;;9.50;99.90;;;;;;4181440;28;20043;-75
2021/05/19 04:53:13;;;;;;;26.70;23.20;;;9.60;99.90;;;;;;4162117;28;20064;-75
2021/05/19 04:57:52;;;;;;;29.83;23.52;;;9.60;99.90;;;;;;4179389;28;20578;-76
2021/05/19 04:59:53;;;;;;;32.70;23.58;;;9.60;99.90;;;;;;4160183;28;20030;-75
2021/05/19 05:02:12;;;;;;;34.40;23.60;;;9.70;99.90;;;;;;4180974;28;20033;-76
2021/05/19 05:06:33;;;;;;;30.30;23.42;;;9.70;99.90;;;;;;4181241;28;20024;-75
2021/05/19 05:08:33;;;;;;;29.98;23.98;;;9.70;99.90;;;;;;4181550;28;20033;-76
2021/05/19 05:10:34;;;;;;;26.27;23.35;;;9.80;99.90;;;;;;4154055;28;20453;-76
2021/05/19 05:12:35;;;;;;;32.83;23.98;;;9.90;99.90;;;;;;4180870;28;20044;-76
2021/05/19 05:14:35;;;;;;;29.58;23.52;;;9.90;99.90;;;;;;4178706;28;20029;-76
2021/05/19 05:16:55;;;;;;;29.45;22.13;;;10.00;99.90;;;;;;4180907;28;20084;-75
2021/05/19 05:18:55;;;;;;;27.48;22.75;;;10.00;99.90;;;;;;4177809;28;20037;-76
2021/05/19 05:21:33;;;;;;;24.95;21.23;;;10.00;99.90;;;;;;4181097;28;20032;-76
2021/05/19 05:23:34;;;;;;;23.50;20.02;;;10.00;99.90;;;;;;4162140;28;20045;-73
2021/05/19 05:27:55;;;;;;;26.08;21.10;;;10.00;99.90;;;;;;4176617;28;20032;-74
2021/05/19 05:29:55;;;;;;;29.27;22.27;;;10.00;99.90;;;;;;4162856;28;20025;-75
2021/05/19 05:34:35;;;;;;;32.92;21.98;;;9.90;99.90;;;;;;4180703;28;20110;-75
2021/05/19 05:36:36;;;;;;;30.85;22.67;;;9.90;99.90;;;;;;4163021;28;20081;-75
2021/05/19 05:38:36;;;;;;;29.50;23.90;;;9.80;99.90;;;;;;4163126;28;20057;-75
2021/05/19 05:40:56;;;;;;;28.98;20.63;;;9.90;99.90;;;;;;4168851;28;20029;-76
2021/05/19 05:42:56;;;;;;;26.25;20.70;;;10.10;99.90;;;;;;4179556;28;20120;-75
2021/05/19 05:44:57;;;;;;;26.70;20.25;;;10.20;99.90;;;;;;4181253;28;20021;-75
2021/05/19 05:46:58;;;;;;;29.75;23.08;;;10.30;99.90;;;;;;4180765;28;20040;-75
2021/05/19 05:51:36;;;;;;;26.90;20.05;;;10.40;99.90;;;;;;4178531;28;20487;-74
2021/05/19 06:03:33;;;;;;;28.00;16.88;;;11.60;99.90;;;;;;4179977;28;20036;-75
2021/05/19 06:05:36;;;;;;;23.63;16.90;;;11.90;99.90;;;;;;4162295;28;20034;-74
2021/05/19 06:07:36;;;;;;;24.50;15.20;;;12.10;99.90;;;;;;4179895;28;20021;-75
2021/05/19 06:09:37;;;;;;;24.15;16.67;;;12.30;99.90;;;;;;4180107;28;20041;-75
2021/05/19 06:11:38;;;;;;;22.45;15.15;;;12.40;99.90;;;;;;4179885;28;20119;-75
2021/05/19 06:13:38;;;;;;;26.05;16.65;;;12.60;99.90;;;;;;4162507;28;20057;-75
2021/05/19 06:15:39;;;;;;;28.25;17.80;;;12.70;99.90;;;;;;4161596;28;20037;-74
2021/05/19 06:19:59;;;;;;;25.25;15.32;;;12.70;99.90;;;;;;4178264;28;20040;-74
2021/05/19 06:22:18;;;;;;;20.42;15.73;;;12.80;99.90;;;;;;4145703;28;20030;-74
2021/05/19 06:24:19;;;;;;;22.35;16.80;;;12.90;99.90;;;;;;4177275;28;20026;-75
2021/05/19 06:28:38;;;;;;;30.70;19.85;;;12.60;99.90;;;;;;4179459;28;20075;-75
2021/05/19 06:30:39;;;;;;;30.23;21.70;;;12.50;99.90;;;;;;4179604;28;20029;-75
2021/05/19 06:32:40;;;;;;;34.08;22.98;;;12.20;99.90;;;;;;4162248;28;20037;-75
2021/05/19 06:37:00;;;;;;;35.65;23.35;;;12.20;99.90;;;;;;4179763;28;20044;-75
2021/05/19 06:39:00;;;;;;;33.55;20.15;;;12.30;99.90;;;;;;4161595;28;20033;-74
2021/05/19 06:41:01;;;;;;;30.65;19.98;;;12.20;99.90;;;;;;4161840;28;20340;-75
2021/05/19 06:43:02;;;;;;;26.90;19.27;;;12.30;99.90;;;;;;4173365;28;20063;-74
2021/05/19 06:45:03;;;;;;;33.03;21.30;;;12.40;99.90;;;;;;4179971;28;20021;-75
2021/05/19 06:47:04;;;;;;;27.00;20.02;;;12.40;99.90;;;;;;4161536;28;20049;-74
2021/05/19 06:49:43;;;;;;;33.35;21.73;;;12.40;99.90;;;;;;4178051;28;20124;-74
2021/05/19 06:51:45;;;;;;;31.85;20.58;;;12.40;99.90;;;;;;4176661;28;20057;-74
2021/05/19 06:54:04;;;;;;;33.50;19.30;;;12.60;99.90;;;;;;4179193;28;20114;-74
2021/05/19 06:58:24;;;;;;;28.38;18.25;;;12.70;99.90;;;;;;4176903;28;20556;-75
2021/05/19 07:00:25;;;;;;;26.88;18.00;;;12.90;99.90;;;;;;4152443;28;20038;-75
2021/05/19 07:02:26;;;;;;;27.27;19.10;;;13.00;99.90;;;;;;4177353;28;20070;-76
2021/05/19 07:07:05;;;;;;;25.75;15.35;;;12.70;99.90;;;;;;4174766;28;20083;-75
2021/05/19 07:09:05;;;;;;;25.50;17.35;;;12.90;99.90;;;;;;4161166;28;20034;-74
2021/05/19 07:11:06;;;;;;;29.15;18.17;;;12.80;99.90;;;;;;4178542;28;20040;-75
2021/05/19 07:13:28;;;;;;;27.13;18.75;;;12.70;99.90;;;;;;4178392;28;20033;-75
2021/05/19 07:15:33;;;;;;;24.13;17.73;;;12.60;99.90;;;;;;4178891;28;20354;-74
2021/05/19 07:17:52;;;;;;;28.33;19.65;;;12.90;99.90;;;;;;4161584;28;20041;-74
2021/05/19 07:20:12;;;;;;;26.70;17.88;;;13.20;99.90;;;;;;4169430;28;20112;-74
2021/05/19 07:29:29;;;;;;;21.05;16.77;;;14.10;99.90;;;;;;4176178;28;20071;-75
2021/05/19 07:31:31;;;;;;;26.95;18.60;;;13.90;99.90;;;;;;4178845;28;20028;-74
2021/05/19 07:33:32;;;;;;;29.02;17.83;;;13.80;99.90;;;;;;4160900;28;20032;-74
2021/05/19 07:35:33;;;;;;;26.85;19.45;;;13.70;99.90;;;;;;4161662;28;20029;-74
2021/05/19 07:37:52;;;;;;;33.90;21.13;;;13.90;99.90;;;;;;4160594;28;20033;-74
2021/05/19 07:40:12;;;;;;;32.15;18.30;;;14.10;99.90;;;;;;4172791;28;20025;-75
2021/05/19 07:42:17;;;;;;;23.60;17.90;;;14.20;99.90;;;;;;4178448;28;20033;-74
2021/05/19 07:46:57;;;;;;;24.30;16.80;;;14.70;99.90;;;;;;4169588;28;20095;-74
2021/05/19 07:48:58;;;;;;;33.83;19.42;;;14.50;99.90;;;;;;4178890;28;20045;-74
2021/05/19 07:53:56;;;;;;;28.83;18.42;;;14.30;99.90;;;;;;4177310;28;20048;-73
2021/05/19 07:58:19;;;;;;;27.42;18.55;;;13.70;99.90;;;;;;4177528;28;20064;-73
2021/05/19 08:08:50;;;;;;;36.63;22.33;;;12.60;99.90;;;;;;4177700;28;20387;-74
2021/05/19 08:13:30;;;;;;;32.42;23.05;;;12.50;99.90;;;;;;4175869;28;20048;-74
2021/05/19 08:15:30;;;;;;;32.85;22.50;;;12.50;99.90;;;;;;4160822;28;20042;-74
2021/05/19 08:17:31;;;;;;;37.15;22.00;;;12.50;99.90;;;;;;4178259;28;20116;-73
2021/05/19 08:19:50;;;;;;;32.90;19.75;;;12.60;99.90;;;;;;4160666;28;20472;-75
2021/05/19 08:21:51;;;;;;;35.60;23.13;;;12.70;99.90;;;;;;4172420;28;20099;-75
2021/05/19 08:23:52;;;;;;;34.88;20.13;;;12.90;99.90;;;;;;4178726;28;20415;-75
2021/05/19 08:25:55;;;;;;;33.88;21.42;;;13.00;99.90;;;;;;4178457;28;20103;-74
2021/05/19 08:27:56;;;;;;;29.33;20.58;;;13.00;99.90;;;;;;4178483;28;20125;-74
2021/05/19 08:29:56;;;;;;;37.08;22.90;;;13.10;99.90;;;;;;4178627;28;20029;-73
2021/05/19 08:32:17;;;;;;;36.50;20.60;;;13.20;99.90;;;;;;4178902;28;20496;-74
2021/05/19 08:34:18;;;;;;;28.50;20.65;;;13.20;99.90;;;;;;4177820;28;20055;-74
2021/05/19 08:36:18;;;;;;;30.65;18.05;;;13.30;99.90;;;;;;4178256;28;20025;-74
2021/05/19 08:38:38;;;;;;;28.80;20.05;;;13.60;99.90;;;;;;4178657;28;20490;-73
2021/05/19 08:40:39;;;;;;;28.55;20.17;;;13.90;99.90;;;;;;4159706;28;20045;-73
2021/05/19 08:45:36;;;;;;;26.85;18.63;;;14.80;99.90;;;;;;4178904;28;20431;-74
2021/05/19 08:47:37;;;;;;;33.13;18.13;;;14.90;99.90;;;;;;4178362;28;20044;-74
2021/05/19 08:49:43;;;;;;;27.33;17.10;;;15.20;99.90;;;;;;4178123;28;20395;-74
2021/05/19 08:51:44;;;;;;;25.73;17.33;;;15.70;99.90;;;;;;4169112;28;20108;-74
2021/05/19 08:54:05;;;;;;;27.90;17.40;;;16.10;99.90;;;;;;4174270;28;20037;-77
2021/05/19 08:59:04;;;;;;;27.27;16.15;;;16.40;99.90;;;;;;4177115;28;20040;-74
2021/05/19 09:01:06;;;;;;;22.52;16.33;;;16.50;99.90;;;;;;4176549;28;20032;-75
2021/05/19 09:03:29;;;;;;;23.13;14.32;;;16.80;99.90;;;;;;4159373;28;20529;-75
2021/05/19 09:06:08;;;;;;;21.65;15.55;;;16.80;99.90;;;;;;4179596;28;20211;-75
2021/05/19 09:08:46;;;;;;;25.40;15.52;;;16.20;99.90;;;;;;4178304;28;20471;-76
2021/05/19 09:11:03;;;;;;;26.70;16.83;;;15.80;99.90;;;;;;4192451;28;20028;-76
2021/05/19 09:15:25;;;;;;;26.15;18.30;;;15.40;99.90;;;;;;4180184;28;20186;-76
2021/05/19 09:22:25;;;;;;;28.15;17.05;;;15.50;99.90;;;;;;4163799;28;20103;-76
2021/05/19 09:24:44;;;;;;;27.90;19.42;;;15.90;99.90;;;;;;4179144;28;20059;-76
2021/05/19 09:29:42;;;;;;;24.17;19.40;;;15.00;99.90;;;;;;4178697;28;20036;-75
2021/05/19 09:37:30;;;;;;;27.30;19.67;;;15.80;99.90;;;;;;4173548;28;20495;-76
2021/05/19 09:42:18;;;;;;;28.95;20.83;;;15.10;99.90;;;;;;4174195;28;20040;-74
2021/05/19 09:44:37;;;;;;;20.83;13.70;;;15.20;99.90;;;;;;4163217;28;20017;-75
2021/05/19 09:49:24;;;;;;;24.90;18.15;;;15.90;99.90;;;;;;4179807;28;20060;-75
2021/05/19 09:51:26;;;;;;;21.60;16.15;;;16.40;99.90;;;;;;4179751;28;20033;-75
2021/05/19 09:53:50;;;;;;;18.58;16.30;;;16.60;99.90;;;;;;4180590;28;20120;-75
2021/05/19 09:56:09;;;;;;;28.08;17.20;;;16.70;99.90;;;;;;4156384;28;20135;-75
2021/05/19 10:00:50;;;;;;;19.08;14.43;;;16.40;99.90;;;;;;4180919;28;20044;-75
2021/05/19 10:08:26;;;;;;;21.55;14.30;;;17.20;99.90;;;;;;4161525;28;20036;-76
2021/05/19 10:10:27;;;;;;;24.95;15.38;;;17.40;99.90;;;;;;4180261;28;20036;-76
2021/05/19 10:12:28;;;;;;;21.30;13.13;;;17.10;99.90;;;;;;4162139;28;20038;-76
2021/05/19 10:17:10;;;;;;;18.13;15.02;;;16.50;99.90;;;;;;4179601;28;20581;-76
2021/05/19 10:24:13;;;;;;;4.47;3.50;;;14.40;99.90;;;;;;4179996;28;20083;-76
2021/05/19 10:26:14;;;;;;;4.95;3.60;;;13.20;99.90;;;;;;4162673;28;20164;-77
2021/05/19 10:30:44;;;;;;;13.37;4.83;;;11.60;99.90;;;;;;4180275;28;20035;-79
2021/05/19 10:35:25;;;;;;;15.98;6.00;;;10.50;99.90;;;;;;4173988;28;20037;-78
2021/05/19 10:37:36;;;;;;;6.60;4.90;;;10.20;99.90;;;;;;4178325;28;20067;-78
2021/05/19 10:42:15;;;;;;;7.55;5.28;;;9.90;99.90;;;;;;4179558;28;20181;-77
2021/05/19 10:44:26;;;;;;;10.20;5.78;;;9.80;99.90;;;;;;4180157;28;20094;-77
2021/05/19 10:49:33;;;;;;;8.52;5.82;;;9.60;99.90;;;;;;4176270;28;20056;-77
2021/05/19 11:01:55;;;;;;;9.40;6.45;;;9.60;99.90;;;;;;4178911;28;20507;-77
2021/05/19 11:04:16;;;;;;;10.30;6.90;;;9.60;99.90;;;;;;4166325;28;20469;-78
2021/05/19 11:06:55;;;;;;;9.18;6.22;;;9.60;99.90;;;;;;4179171;28;20035;-78
2021/05/19 11:09:34;;;;;;;25.10;9.45;;;9.60;99.90;;;;;;4178789;28;20499;-78
2021/05/19 11:11:35;;;;;;;11.45;6.60;;;9.80;99.90;;;;;;4161245;28;20033;-77
2021/05/19 11:16:41;;;;;;;8.80;5.70;;;9.90;99.90;;;;;;4177056;28;20052;-78
2021/05/19 11:19:18;;;;;;;7.38;6.20;;;10.00;99.90;;;;;;4179522;28;20055;-77
2021/05/19 11:21:21;;;;;;;6.88;5.18;;;10.10;99.90;;;;;;4154427;28;20113;-76
2021/05/19 11:23:41;;;;;;;5.78;5.07;;;10.10;99.90;;;;;;4179411;28;20029;-76
2021/05/19 11:26:16;;;;;;;7.70;4.95;;;10.20;99.90;;;;;;4176645;28;20055;-76
2021/05/19 11:28:35;;;;;;;9.45;6.40;;;10.30;99.90;;;;;;4153007;28;20034;-77
2021/05/19 11:35:34;;;;;;;10.27;6.57;;;10.20;99.90;;;;;;4178451;28;20040;-78
2021/05/19 11:37:35;;;;;;;8.52;6.28;;;10.20;99.90;;;;;;4161193;28;20041;-78
2021/05/19 11:39:49;;;;;;;9.48;6.03;;;10.20;99.90;;;;;;4158341;28;20552;-76
2021/05/19 11:44:34;;;;;;;7.78;5.05;;;10.40;99.90;;;;;;4176521;28;20099;-77
2021/05/19 11:46:45;;;;;;;6.85;5.55;;;10.40;99.90;;;;;;4178949;28;20041;-77
2021/05/19 11:49:12;;;;;;;6.20;5.05;;;10.50;99.90;;;;;;4178760;28;20048;-78
2021/05/19 11:51:21;;;;;;;9.07;5.32;;;10.40;99.90;;;;;;4178269;28;20488;-77
2021/05/19 11:53:24;;;;;;;6.38;4.85;;;10.50;99.90;;;;;;4176370;28;20570;-76
2021/05/19 11:55:37;;;;;;;5.30;4.10;;;10.70;99.90;;;;;;4161071;28;20620;-76
2021/05/19 11:57:37;;;;;;;4.72;4.28;;;10.80;99.90;;;;;;4161346;28;20029;-76
2021/05/19 11:59:39;;;;;;;8.32;5.18;;;10.80;99.90;;;;;;4178609;28;20043;-76
2021/05/19 12:02:12;;;;;;;7.25;4.28;;;11.10;99.90;;;;;;4160220;28;20026;-76
2021/05/19 12:04:33;;;;;;;6.32;3.33;;;11.50;99.90;;;;;;4177731;28;20451;-75
2021/05/19 12:06:46;;;;;;;6.28;3.95;;;12.00;99.90;;;;;;4178596;28;20041;-76
2021/05/19 12:08:48;;;;;;;3.95;2.90;;;12.60;99.90;;;;;;4159077;28;20041;-78
2021/05/19 12:13:46;;;;;;;4.22;3.60;;;13.60;99.90;;;;;;4178268;28;20116;-77
2021/05/19 12:15:47;;;;;;;3.83;3.35;;;14.00;99.90;;;;;;4176708;28;20168;-77
2021/05/19 12:17:56;;;;;;;5.05;3.10;;;14.30;99.90;;;;;;4161103;28;20028;-77
2021/05/19 12:22:35;;;;;;;4.90;2.70;;;15.10;99.90;;;;;;4178039;28;20052;-77
2021/05/19 12:24:55;;;;;;;4.88;2.70;;;16.00;99.90;;;;;;4160119;28;20025;-78
2021/05/19 12:30:02;;;;;;;5.80;3.72;;;15.90;99.90;;;;;;4169219;28;20387;-78
2021/05/19 12:32:44;;;;;;;4.40;3.63;;;16.00;99.90;;;;;;4159565;28;20415;-76
2021/05/19 12:35:07;;;;;;;6.03;3.83;;;15.60;99.90;;;;;;4169997;28;20047;-76
2021/05/19 12:37:09;;;;;;;6.00;4.10;;;15.20;99.90;;;;;;4156006;28;20079;-77
2021/05/19 12:39:09;;;;;;;3.67;3.15;;;14.60;99.90;;;;;;4157201;28;20033;-76
2021/05/19 12:41:11;;;;;;;3.42;3.13;;;14.40;99.90;;;;;;4163057;28;20026;-76
2021/05/19 12:43:24;;;;;;;6.60;3.85;;;14.00;99.90;;;;;;4181597;28;20453;-76
2021/05/19 12:46:03;;;;;;;6.00;3.97;;;13.80;99.90;;;;;;4163332;28;21071;-76
2021/05/19 12:50:49;;;;;;;4.93;3.55;;;14.80;99.90;;;;;;4181724;28;20110;-78
2021/05/19 13:06:00;;;;;;;4.35;3.33;;;17.60;99.90;;;;;;4171455;28;20032;-78
2021/05/19 13:08:20;;;;;;;2.42;2.22;;;18.20;99.90;;;;;;4160395;28;20040;-79
2021/05/19 13:10:36;;;;;;;3.03;2.75;;;19.00;99.90;;;;;;4163128;28;20063;-75
2021/05/19 13:13:09;;;;;;;2.22;1.70;;;20.20;99.90;;;;;;4158449;28;20036;-78
2021/05/19 13:15:15;;;;;;;2.25;2.05;;;20.80;99.90;;;;;;4159158;28;20046;-78
2021/05/19 13:20:00;;;;;;;2.97;1.92;;;20.80;99.90;;;;;;4174391;28;20039;-78
2021/05/19 13:22:23;;;;;;;1.90;1.80;;;21.20;99.90;;;;;;4180832;28;20025;-78
2021/05/19 13:25:01;;;;;;;2.35;2.08;;;20.70;99.90;;;;;;4179421;28;20480;-76
2021/05/19 13:27:38;;;;;;;5.32;2.65;;;20.90;99.90;;;;;;4161406;28;20064;-75
2021/05/19 13:29:40;;;;;;;2.72;2.53;;;20.70;99.90;;;;;;4162207;28;20144;-77
2021/05/19 13:32:20;;;;;;;3.40;2.10;;;20.50;99.90;;;;;;4161670;28;20566;-76
2021/05/19 13:36:42;;;;;;;3.35;2.20;;;20.20;99.90;;;;;;4179303;28;20029;-76
2021/05/19 13:38:44;;;;;;;4.05;2.30;;;19.70;99.90;;;;;;4162419;28;20033;-77
2021/05/19 13:40:46;;;;;;;4.22;2.35;;;19.10;99.90;;;;;;4162918;28;20132;-77
2021/05/19 13:42:46;;;;;;;2.63;2.42;;;18.50;99.90;;;;;;4180622;28;20095;-78
2021/05/19 13:45:06;;;;;;;2.72;2.42;;;17.60;99.90;;;;;;4178763;28;20025;-76
2021/05/19 13:49:46;;;;;;;3.22;2.47;;;17.00;99.90;;;;;;4180489;28;20392;-76
2021/05/19 13:54:09;;;;;;;2.70;2.50;;;16.50;99.90;;;;;;4180372;28;20029;-78
2021/05/19 13:56:47;;;;;;;2.50;2.30;;;16.60;99.90;;;;;;4162705;28;20138;-77
2021/05/19 13:59:06;;;;;;;4.88;2.55;;;17.00;99.90;;;;;;4173706;28;20037;-77
2021/05/19 14:01:08;;;;;;;2.60;2.40;;;17.90;99.90;;;;;;4180106;28;20033;-76
2021/05/19 14:03:09;;;;;;;3.63;2.67;;;19.00;99.90;;;;;;4180018;28;20028;-76
2021/05/19 14:05:47;;;;;;;2.72;2.53;;;20.20;99.90;;;;;;4161010;28;20472;-76
2021/05/19 14:08:06;;;;;;;4.25;2.80;;;20.90;99.90;;;;;;4178919;28;20048;-75
2021/05/19 14:10:08;;;;;;;2.50;2.30;;;20.90;99.90;;;;;;4178145;28;20040;-74
2021/05/19 14:14:55;;;;;;;3.20;2.88;;;18.80;99.90;;;;;;4178758;28;20066;-77
2021/05/19 14:20:36;;;;;;;3.60;3.33;;;16.70;99.90;;;;;;4179588;28;20107;-76
2021/05/19 14:28:12;;;;;;;6.32;4.72;;;13.40;99.90;;;;;;4167536;28;20363;-76
2021/05/19 14:30:15;;;;;;;6.63;5.30;;;12.70;99.90;;;;;;4154470;28;20083;-75
2021/05/19 14:35:00;;;;;;;5.93;5.13;;;12.20;99.90;;;;;;4173895;28;20036;-75
2021/05/19 14:38:07;;;;;;;5.53;4.93;;;12.00;99.90;;;;;;4161337;28;20432;-76
2021/05/19 14:45:52;;;;;;;4.75;4.35;;;12.00;99.90;;;;;;4179565;28;20032;-76
2021/05/19 15:04:19;;;;;;;5.38;2.67;;;15.70;99.90;;;;;;4174252;28;20589;-76
2021/05/19 15:06:39;;;;;;;3.00;2.80;;;16.80;99.90;;;;;;4178878;28;20400;-76
2021/05/19 15:13:37;;;;;;;1.83;1.73;;;20.30;99.90;;;;;;4179555;28;20157;-76
2021/05/19 15:17:59;;;;;;;3.67;2.10;;;21.30;99.90;;;;;;4178966;28;20036;-76
2021/05/19 15:20:19;;;;;;;1.60;1.50;;;21.20;99.90;;;;;;4179783;28;20060;-76
2021/05/19 15:22:19;;;;;;;1.70;1.60;;;21.50;99.90;;;;;;4158293;28;20041;-76
2021/05/19 15:24:20;;;;;;;1.70;1.60;;;22.20;99.90;;;;;;4176054;28;20396;-77
2021/05/19 15:29:00;;;;;;;1.80;1.70;;;22.20;99.90;;;;;;4179437;28;20464;-75
2021/05/19 15:31:21;;;;;;;1.83;1.70;;;21.60;99.90;;;;;;4162451;28;20046;-76
2021/05/19 15:33:23;;;;;;;1.65;1.55;;;21.00;99.90;;;;;;4177641;28;20037;-75
2021/05/19 15:36:04;;;;;;;2.10;1.85;;;20.90;99.90;;;;;;4178499;28;20044;-76
2021/05/19 15:38:05;;;;;;;2.00;1.90;;;20.50;99.90;;;;;;4176349;28;20116;-76
2021/05/19 15:40:08;;;;;;;3.90;2.60;;;19.90;99.90;;;;;;4158260;28;20029;-76
2021/05/19 15:46:50;;;;;;;2.97;2.65;;;17.80;99.90;;;;;;4173874;28;20112;-76
2021/05/19 15:48:51;;;;;;;4.18;2.70;;;17.50;99.90;;;;;;4175015;28;20052;-76
2021/05/19 15:53:48;;;;;;;3.13;2.83;;;17.30;99.90;;;;;;4176763;28;20039;-75
2021/05/19 15:58:27;;;;;;;2.75;2.55;;;16.60;99.90;;;;;;4178758;28;20032;-76
2021/05/19 16:00:27;;;;;;;3.78;3.33;;;16.60;99.90;;;;;;4178677;28;20033;-76
2021/05/19 16:02:28;;;;;;;5.43;2.88;;;16.50;99.90;;;;;;4179031;28;20538;-75